sensor_id;sensor_type;location;lat;lon;timestamp;P1;P2;P0
77699;PMS5003;66867;42.658;23.320;2023-06-14T00:00:00;13;13;
77699;PMS5003;66867;42.658;23.320;2023-06-14T00:01:00;16;14;
77699;PMS5003;66867;42.658;23.320;2023-06-14T00:02:00;16;16;
77699;PMS5003;66867;42.658;23.320;2023-06-14T00:03:00;16;15;
77699;PMS5003;66867;42.658;23.320;2023-06-14T00:04:01;16;15;
77699;PMS5003;66867;42.658;23.320;2023-06-14T00:05:00;19;19;
77699;PMS5003;66867;42.658;23.320;2023-06-14T00:06:00;15;14;
77699;PMS5003;66867;42.658;23.320;2023-06-14T00:07:00;20;19;
77699;PMS5003;66867;42.658;23.320;2023-06-14T00:08:00;20;18;
77699;PMS5003;66867;42.658;23.320;2023-06-14T00:09:00;17;17;
77699;PMS5003;66867;42.658;23.320;2023-06-14T00:10:00;13;13;
77699;PMS5003;66867;42.658;23.320;2023-06-14T00:11:00;15;15;
77699;PMS5003;66867;42.658;23.320;2023-06-14T00:12:00;16;16;
77699;PMS5003;66867;42.658;23.320;2023-06-14T00:13:02;14;14;
77699;PMS5003;66867;42.658;23.320;2023-06-14T00:14:00;16;16;
77699;PMS5003;66867;42.658;23.320;2023-06-14T00:15:00;13;13;
77699;PMS5003;66867;42.658;23.320;2023-06-14T00:16:00;15;15;
77699;PMS5003;66867;42.658;23.320;2023-06-14T00:17:00;12;12;
77699;PMS5003;66867;42.658;23.320;2023-06-14T00:18:01;13;13;
77699;PMS5003;66867;42.658;23.320;2023-06-14T00:19:01;11;11;
77699;PMS5003;66867;42.658;23.320;2023-06-14T00:20:03;13;12;
77699;PMS5003;66867;42.658;23.320;2023-06-14T00:21:00;14;14;
77699;PMS5003;66867;42.658;23.320;2023-06-14T00:22:00;14;13;
77699;PMS5003;66867;42.658;23.320;2023-06-14T00:23:00;13;13;
77699;PMS5003;66867;42.658;23.320;2023-06-14T00:24:00;12;11;
77699;PMS5003;66867;42.658;23.320;2023-06-14T00:25:00;11;11;
77699;PMS5003;66867;42.658;23.320;2023-06-14T00:26:00;12;12;
77699;PMS5003;66867;42.658;23.320;2023-06-14T00:27:00;10;10;
77699;PMS5003;66867;42.658;23.320;2023-06-14T00:28:00;13;12;
77699;PMS5003;66867;42.658;23.320;2023-06-14T00:29:00;9;9;
77699;PMS5003;66867;42.658;23.320;2023-06-14T00:30:00;11;11;
77699;PMS5003;66867;42.658;23.320;2023-06-14T00:31:00;12;12;
77699;PMS5003;66867;42.658;23.320;2023-06-14T00:32:00;10;10;
77699;PMS5003;66867;42.658;23.320;2023-06-14T00:33:01;11;11;
77699;PMS5003;66867;42.658;23.320;2023-06-14T00:34:00;12;12;
77699;PMS5003;66867;42.658;23.320;2023-06-14T00:35:00;12;12;
77699;PMS5003;66867;42.658;23.320;2023-06-14T00:36:00;13;12;
77699;PMS5003;66867;42.658;23.320;2023-06-14T00:37:01;12;12;
77699;PMS5003;66867;42.658;23.320;2023-06-14T00:38:01;15;13;
77699;PMS5003;66867;42.658;23.320;2023-06-14T00:39:00;14;14;
77699;PMS5003;66867;42.658;23.320;2023-06-14T00:40:00;11;11;
77699;PMS5003;66867;42.658;23.320;2023-06-14T00:41:00;13;12;
77699;PMS5003;66867;42.658;23.320;2023-06-14T00:42:00;10;10;
77699;PMS5003;66867;42.658;23.320;2023-06-14T00:43:00;14;14;
77699;PMS5003;66867;42.658;23.320;2023-06-14T00:44:00;12;11;
77699;PMS5003;66867;42.658;23.320;2023-06-14T00:45:00;11;11;
77699;PMS5003;66867;42.658;23.320;2023-06-14T00:46:00;11;11;
77699;PMS5003;66867;42.658;23.320;2023-06-14T00:47:00;12;12;
77699;PMS5003;66867;42.658;23.320;2023-06-14T00:48:00;12;12;
77699;PMS5003;66867;42.658;23.320;2023-06-14T00:49:01;12;12;
77699;PMS5003;66867;42.658;23.320;2023-06-14T00:50:01;11;10;
77699;PMS5003;66867;42.658;23.320;2023-06-14T00:51:00;12;12;
77699;PMS5003;66867;42.658;23.320;2023-06-14T00:52:00;11;10;
77699;PMS5003;66867;42.658;23.320;2023-06-14T00:53:00;12;12;
77699;PMS5003;66867;42.658;23.320;2023-06-14T00:54:00;8;8;
77699;PMS5003;66867;42.658;23.320;2023-06-14T00:55:00;11;10;
77699;PMS5003;66867;42.658;23.320;2023-06-14T00:56:00;14;13;
77699;PMS5003;66867;42.658;23.320;2023-06-14T00:57:00;11;11;
77699;PMS5003;66867;42.658;23.320;2023-06-14T00:58:00;12;11;
77699;PMS5003;66867;42.658;23.320;2023-06-14T00:59:00;11;11;
77699;PMS5003;66867;42.658;23.320;2023-06-14T01:00:00;13;12;
77699;PMS5003;66867;42.658;23.320;2023-06-14T01:01:00;11;11;
77699;PMS5003;66867;42.658;23.320;2023-06-14T01:02:00;11;10;
77699;PMS5003;66867;42.658;23.320;2023-06-14T01:03:00;9;9;
77699;PMS5003;66867;42.658;23.320;2023-06-14T01:04:00;12;11;
77699;PMS5003;66867;42.658;23.320;2023-06-14T01:05:00;11;10;
77699;PMS5003;66867;42.658;23.320;2023-06-14T01:07:12;12;12;
77699;PMS5003;66867;42.658;23.320;2023-06-14T01:09:09;11;11;
77699;PMS5003;66867;42.658;23.320;2023-06-14T01:11:02;13;13;
77699;PMS5003;66867;42.658;23.320;2023-06-14T01:12:11;15;14;
77699;PMS5003;66867;42.658;23.320;2023-06-14T01:13:12;15;15;
77699;PMS5003;66867;42.658;23.320;2023-06-14T01:14:01;14;13;
77699;PMS5003;66867;42.658;23.320;2023-06-14T01:15:00;13;13;
77699;PMS5003;66867;42.658;23.320;2023-06-14T01:16:01;12;12;
77699;PMS5003;66867;42.658;23.320;2023-06-14T01:17:01;12;12;
77699;PMS5003;66867;42.658;23.320;2023-06-14T01:18:01;11;11;
77699;PMS5003;66867;42.658;23.320;2023-06-14T01:19:00;14;13;
77699;PMS5003;66867;42.658;23.320;2023-06-14T01:20:02;11;11;
77699;PMS5003;66867;42.658;23.320;2023-06-14T01:21:00;11;11;
77699;PMS5003;66867;42.658;23.320;2023-06-14T01:22:01;11;11;
77699;PMS5003;66867;42.658;23.320;2023-06-14T01:23:00;13;12;
77699;PMS5003;66867;42.658;23.320;2023-06-14T01:24:00;11;11;
77699;PMS5003;66867;42.658;23.320;2023-06-14T01:25:00;8;8;
77699;PMS5003;66867;42.658;23.320;2023-06-14T01:26:01;11;11;
77699;PMS5003;66867;42.658;23.320;2023-06-14T01:27:02;12;11;
77699;PMS5003;66867;42.658;23.320;2023-06-14T01:28:04;11;11;
77699;PMS5003;66867;42.658;23.320;2023-06-14T01:29:01;11;11;
77699;PMS5003;66867;42.658;23.320;2023-06-14T01:30:00;10;10;
77699;PMS5003;66867;42.658;23.320;2023-06-14T01:31:02;9;9;
77699;PMS5003;66867;42.658;23.320;2023-06-14T01:32:01;12;12;
77699;PMS5003;66867;42.658;23.320;2023-06-14T01:33:00;12;12;
77699;PMS5003;66867;42.658;23.320;2023-06-14T01:34:00;10;10;
77699;PMS5003;66867;42.658;23.320;2023-06-14T01:35:00;11;11;
77699;PMS5003;66867;42.658;23.320;2023-06-14T01:36:00;12;12;
77699;PMS5003;66867;42.658;23.320;2023-06-14T01:37:01;9;9;
77699;PMS5003;66867;42.658;23.320;2023-06-14T01:38:01;10;10;
77699;PMS5003;66867;42.658;23.320;2023-06-14T01:39:01;11;11;
77699;PMS5003;66867;42.658;23.320;2023-06-14T01:40:01;10;9;
77699;PMS5003;66867;42.658;23.320;2023-06-14T01:41:00;12;11;
77699;PMS5003;66867;42.658;23.320;2023-06-14T01:42:00;11;10;
77699;PMS5003;66867;42.658;23.320;2023-06-14T01:43:01;9;9;
77699;PMS5003;66867;42.658;23.320;2023-06-14T01:44:00;8;8;
77699;PMS5003;66867;42.658;23.320;2023-06-14T01:45:00;9;9;
77699;PMS5003;66867;42.658;23.320;2023-06-14T01:46:00;12;11;
77699;PMS5003;66867;42.658;23.320;2023-06-14T01:47:00;12;11;
77699;PMS5003;66867;42.658;23.320;2023-06-14T01:48:00;11;11;
77699;PMS5003;66867;42.658;23.320;2023-06-14T01:49:00;9;9;
77699;PMS5003;66867;42.658;23.320;2023-06-14T01:50:01;11;11;
77699;PMS5003;66867;42.658;23.320;2023-06-14T01:51:00;9;9;
77699;PMS5003;66867;42.658;23.320;2023-06-14T01:52:00;10;9;
77699;PMS5003;66867;42.658;23.320;2023-06-14T01:53:00;11;11;
77699;PMS5003;66867;42.658;23.320;2023-06-14T01:54:00;13;12;
77699;PMS5003;66867;42.658;23.320;2023-06-14T01:55:00;10;10;
77699;PMS5003;66867;42.658;23.320;2023-06-14T01:56:00;11;11;
77699;PMS5003;66867;42.658;23.320;2023-06-14T01:57:00;11;10;
77699;PMS5003;66867;42.658;23.320;2023-06-14T01:58:00;9;9;
77699;PMS5003;66867;42.658;23.320;2023-06-14T01:59:00;9;9;
77699;PMS5003;66867;42.658;23.320;2023-06-14T02:00:00;10;10;
77699;PMS5003;66867;42.658;23.320;2023-06-14T02:01:00;12;11;
77699;PMS5003;66867;42.658;23.320;2023-06-14T02:02:02;12;12;
77699;PMS5003;66867;42.658;23.320;2023-06-14T02:03:00;10;10;
77699;PMS5003;66867;42.658;23.320;2023-06-14T02:04:00;10;10;
77699;PMS5003;66867;42.658;23.320;2023-06-14T02:05:00;11;10;
77699;PMS5003;66867;42.658;23.320;2023-06-14T02:06:00;10;10;
77699;PMS5003;66867;42.658;23.320;2023-06-14T02:07:00;12;12;
77699;PMS5003;66867;42.658;23.320;2023-06-14T02:08:00;8;8;
77699;PMS5003;66867;42.658;23.320;2023-06-14T02:09:00;11;9;
77699;PMS5003;66867;42.658;23.320;2023-06-14T02:10:00;9;9;
77699;PMS5003;66867;42.658;23.320;2023-06-14T02:11:00;9;9;
77699;PMS5003;66867;42.658;23.320;2023-06-14T02:12:01;8;8;
77699;PMS5003;66867;42.658;23.320;2023-06-14T02:13:00;11;11;
77699;PMS5003;66867;42.658;23.320;2023-06-14T02:14:00;10;10;
77699;PMS5003;66867;42.658;23.320;2023-06-14T02:15:00;14;12;
77699;PMS5003;66867;42.658;23.320;2023-06-14T02:16:00;10;10;
77699;PMS5003;66867;42.658;23.320;2023-06-14T02:17:00;11;10;
77699;PMS5003;66867;42.658;23.320;2023-06-14T02:18:01;12;11;
77699;PMS5003;66867;42.658;23.320;2023-06-14T02:19:00;10;10;
77699;PMS5003;66867;42.658;23.320;2023-06-14T02:20:00;11;9;
77699;PMS5003;66867;42.658;23.320;2023-06-14T02:21:00;10;10;
77699;PMS5003;66867;42.658;23.320;2023-06-14T02:22:00;12;12;
77699;PMS5003;66867;42.658;23.320;2023-06-14T02:23:00;9;9;
77699;PMS5003;66867;42.658;23.320;2023-06-14T02:24:00;10;9;
77699;PMS5003;66867;42.658;23.320;2023-06-14T02:25:00;9;8;
77699;PMS5003;66867;42.658;23.320;2023-06-14T02:26:00;10;8;
77699;PMS5003;66867;42.658;23.320;2023-06-14T02:27:01;9;9;
77699;PMS5003;66867;42.658;23.320;2023-06-14T02:28:00;11;10;
77699;PMS5003;66867;42.658;23.320;2023-06-14T02:29:00;10;10;
77699;PMS5003;66867;42.658;23.320;2023-06-14T02:30:00;9;9;
77699;PMS5003;66867;42.658;23.320;2023-06-14T02:31:00;11;10;
77699;PMS5003;66867;42.658;23.320;2023-06-14T02:32:00;12;11;
77699;PMS5003;66867;42.658;23.320;2023-06-14T02:33:00;11;10;
77699;PMS5003;66867;42.658;23.320;2023-06-14T02:34:00;11;11;
77699;PMS5003;66867;42.658;23.320;2023-06-14T02:35:00;11;11;
77699;PMS5003;66867;42.658;23.320;2023-06-14T02:36:01;14;14;
77699;PMS5003;66867;42.658;23.320;2023-06-14T02:37:01;8;8;
77699;PMS5003;66867;42.658;23.320;2023-06-14T02:38:00;14;13;
77699;PMS5003;66867;42.658;23.320;2023-06-14T02:39:00;10;10;
77699;PMS5003;66867;42.658;23.320;2023-06-14T02:40:00;10;10;
77699;PMS5003;66867;42.658;23.320;2023-06-14T02:41:00;10;9;
77699;PMS5003;66867;42.658;23.320;2023-06-14T02:42:00;9;9;
77699;PMS5003;66867;42.658;23.320;2023-06-14T02:43:00;10;10;
77699;PMS5003;66867;42.658;23.320;2023-06-14T02:44:00;10;10;
77699;PMS5003;66867;42.658;23.320;2023-06-14T02:45:00;11;10;
77699;PMS5003;66867;42.658;23.320;2023-06-14T02:46:00;10;10;
77699;PMS5003;66867;42.658;23.320;2023-06-14T02:47:00;12;12;
77699;PMS5003;66867;42.658;23.320;2023-06-14T02:48:00;11;10;
77699;PMS5003;66867;42.658;23.320;2023-06-14T02:49:00;13;12;
77699;PMS5003;66867;42.658;23.320;2023-06-14T02:50:00;11;11;
77699;PMS5003;66867;42.658;23.320;2023-06-14T02:51:00;13;12;
77699;PMS5003;66867;42.658;23.320;2023-06-14T02:52:00;13;13;
77699;PMS5003;66867;42.658;23.320;2023-06-14T02:53:00;10;10;
77699;PMS5003;66867;42.658;23.320;2023-06-14T02:54:00;12;12;
77699;PMS5003;66867;42.658;23.320;2023-06-14T02:55:00;10;10;
77699;PMS5003;66867;42.658;23.320;2023-06-14T02:56:00;12;11;
77699;PMS5003;66867;42.658;23.320;2023-06-14T02:57:00;11;11;
77699;PMS5003;66867;42.658;23.320;2023-06-14T02:58:00;10;10;
77699;PMS5003;66867;42.658;23.320;2023-06-14T02:59:00;12;12;
77699;PMS5003;66867;42.658;23.320;2023-06-14T03:00:00;15;14;
77699;PMS5003;66867;42.658;23.320;2023-06-14T03:01:00;9;9;
77699;PMS5003;66867;42.658;23.320;2023-06-14T03:02:00;9;9;
77699;PMS5003;66867;42.658;23.320;2023-06-14T03:03:00;11;11;
77699;PMS5003;66867;42.658;23.320;2023-06-14T03:04:01;12;12;
77699;PMS5003;66867;42.658;23.320;2023-06-14T03:05:00;12;11;
77699;PMS5003;66867;42.658;23.320;2023-06-14T03:06:00;11;11;
77699;PMS5003;66867;42.658;23.320;2023-06-14T03:07:00;11;11;
77699;PMS5003;66867;42.658;23.320;2023-06-14T03:08:00;11;10;
77699;PMS5003;66867;42.658;23.320;2023-06-14T03:09:00;10;9;
77699;PMS5003;66867;42.658;23.320;2023-06-14T03:10:00;9;9;
77699;PMS5003;66867;42.658;23.320;2023-06-14T03:11:00;10;10;
77699;PMS5003;66867;42.658;23.320;2023-06-14T03:12:00;9;9;
77699;PMS5003;66867;42.658;23.320;2023-06-14T03:13:00;12;12;
77699;PMS5003;66867;42.658;23.320;2023-06-14T03:14:00;10;9;
77699;PMS5003;66867;42.658;23.320;2023-06-14T03:15:00;11;11;
77699;PMS5003;66867;42.658;23.320;2023-06-14T03:16:00;10;10;
77699;PMS5003;66867;42.658;23.320;2023-06-14T03:17:00;10;10;
77699;PMS5003;66867;42.658;23.320;2023-06-14T03:18:00;12;12;
77699;PMS5003;66867;42.658;23.320;2023-06-14T03:19:00;11;11;
77699;PMS5003;66867;42.658;23.320;2023-06-14T03:20:00;12;11;
77699;PMS5003;66867;42.658;23.320;2023-06-14T03:21:01;13;12;
77699;PMS5003;66867;42.658;23.320;2023-06-14T03:22:00;11;10;
77699;PMS5003;66867;42.658;23.320;2023-06-14T03:23:01;8;8;
77699;PMS5003;66867;42.658;23.320;2023-06-14T03:24:00;9;9;
77699;PMS5003;66867;42.658;23.320;2023-06-14T03:25:00;12;12;
77699;PMS5003;66867;42.658;23.320;2023-06-14T03:26:00;12;12;
77699;PMS5003;66867;42.658;23.320;2023-06-14T03:27:00;13;13;
77699;PMS5003;66867;42.658;23.320;2023-06-14T03:28:00;12;11;
77699;PMS5003;66867;42.658;23.320;2023-06-14T03:29:00;10;10;
77699;PMS5003;66867;42.658;23.320;2023-06-14T03:30:00;14;13;
77699;PMS5003;66867;42.658;23.320;2023-06-14T03:31:00;10;10;
77699;PMS5003;66867;42.658;23.320;2023-06-14T03:32:01;11;11;
77699;PMS5003;66867;42.658;23.320;2023-06-14T03:33:00;11;10;
77699;PMS5003;66867;42.658;23.320;2023-06-14T03:34:01;13;13;
77699;PMS5003;66867;42.658;23.320;2023-06-14T03:35:00;11;10;
77699;PMS5003;66867;42.658;23.320;2023-06-14T03:36:01;15;14;
77699;PMS5003;66867;42.658;23.320;2023-06-14T03:37:00;13;13;
77699;PMS5003;66867;42.658;23.320;2023-06-14T03:38:00;12;12;
77699;PMS5003;66867;42.658;23.320;2023-06-14T03:39:00;14;14;
77699;PMS5003;66867;42.658;23.320;2023-06-14T03:40:00;12;12;
77699;PMS5003;66867;42.658;23.320;2023-06-14T03:41:00;11;11;
77699;PMS5003;66867;42.658;23.320;2023-06-14T03:42:00;11;11;
77699;PMS5003;66867;42.658;23.320;2023-06-14T03:43:00;13;11;
77699;PMS5003;66867;42.658;23.320;2023-06-14T03:44:00;11;11;
77699;PMS5003;66867;42.658;23.320;2023-06-14T03:45:00;12;12;
77699;PMS5003;66867;42.658;23.320;2023-06-14T03:46:00;14;12;
77699;PMS5003;66867;42.658;23.320;2023-06-14T03:47:00;9;9;
77699;PMS5003;66867;42.658;23.320;2023-06-14T03:48:00;11;11;
77699;PMS5003;66867;42.658;23.320;2023-06-14T03:49:00;12;12;
77699;PMS5003;66867;42.658;23.320;2023-06-14T03:50:01;29;27;
77699;PMS5003;66867;42.658;23.320;2023-06-14T03:51:00;26;24;
77699;PMS5003;66867;42.658;23.320;2023-06-14T03:52:00;16;16;
77699;PMS5003;66867;42.658;23.320;2023-06-14T03:53:00;14;13;
77699;PMS5003;66867;42.658;23.320;2023-06-14T03:54:01;27;27;
77699;PMS5003;66867;42.658;23.320;2023-06-14T03:55:00;24;24;
77699;PMS5003;66867;42.658;23.320;2023-06-14T03:56:00;15;15;
77699;PMS5003;66867;42.658;23.320;2023-06-14T03:57:00;14;13;
77699;PMS5003;66867;42.658;23.320;2023-06-14T03:58:00;19;19;
77699;PMS5003;66867;42.658;23.320;2023-06-14T03:59:00;16;16;
77699;PMS5003;66867;42.658;23.320;2023-06-14T04:00:00;15;14;
77699;PMS5003;66867;42.658;23.320;2023-06-14T04:01:00;14;13;
77699;PMS5003;66867;42.658;23.320;2023-06-14T04:02:00;18;17;
77699;PMS5003;66867;42.658;23.320;2023-06-14T04:03:00;19;19;
77699;PMS5003;66867;42.658;23.320;2023-06-14T04:04:00;22;20;
77699;PMS5003;66867;42.658;23.320;2023-06-14T04:05:00;17;17;
77699;PMS5003;66867;42.658;23.320;2023-06-14T04:06:00;19;19;
77699;PMS5003;66867;42.658;23.320;2023-06-14T04:07:00;17;17;
77699;PMS5003;66867;42.658;23.320;2023-06-14T04:08:00;21;21;
77699;PMS5003;66867;42.658;23.320;2023-06-14T04:09:00;20;20;
77699;PMS5003;66867;42.658;23.320;2023-06-14T04:10:00;22;21;
77699;PMS5003;66867;42.658;23.320;2023-06-14T04:11:00;15;15;
77699;PMS5003;66867;42.658;23.320;2023-06-14T04:12:00;11;11;
77699;PMS5003;66867;42.658;23.320;2023-06-14T04:13:00;18;17;
77699;PMS5003;66867;42.658;23.320;2023-06-14T04:14:01;17;17;
77699;PMS5003;66867;42.658;23.320;2023-06-14T04:15:00;14;14;
77699;PMS5003;66867;42.658;23.320;2023-06-14T04:16:00;13;13;
77699;PMS5003;66867;42.658;23.320;2023-06-14T04:17:00;13;13;
77699;PMS5003;66867;42.658;23.320;2023-06-14T04:18:00;17;14;
77699;PMS5003;66867;42.658;23.320;2023-06-14T04:19:00;17;14;
77699;PMS5003;66867;42.658;23.320;2023-06-14T04:20:02;17;16;
77699;PMS5003;66867;42.658;23.320;2023-06-14T04:21:00;15;13;
77699;PMS5003;66867;42.658;23.320;2023-06-14T04:22:00;13;12;
77699;PMS5003;66867;42.658;23.320;2023-06-14T04:23:12;14;14;
77699;PMS5003;66867;42.658;23.320;2023-06-14T04:24:00;16;16;
77699;PMS5003;66867;42.658;23.320;2023-06-14T04:25:00;14;14;
77699;PMS5003;66867;42.658;23.320;2023-06-14T04:26:00;14;14;
77699;PMS5003;66867;42.658;23.320;2023-06-14T04:27:00;15;13;
77699;PMS5003;66867;42.658;23.320;2023-06-14T04:28:00;13;12;
77699;PMS5003;66867;42.658;23.320;2023-06-14T04:29:00;16;16;
77699;PMS5003;66867;42.658;23.320;2023-06-14T04:30:00;13;13;
77699;PMS5003;66867;42.658;23.320;2023-06-14T04:31:00;16;14;
77699;PMS5003;66867;42.658;23.320;2023-06-14T04:32:00;9;9;
77699;PMS5003;66867;42.658;23.320;2023-06-14T04:33:00;12;11;
77699;PMS5003;66867;42.658;23.320;2023-06-14T04:34:00;14;14;
77699;PMS5003;66867;42.658;23.320;2023-06-14T04:35:00;16;14;
77699;PMS5003;66867;42.658;23.320;2023-06-14T04:36:00;14;14;
77699;PMS5003;66867;42.658;23.320;2023-06-14T04:37:00;11;11;
77699;PMS5003;66867;42.658;23.320;2023-06-14T04:39:01;16;14;
77699;PMS5003;66867;42.658;23.320;2023-06-14T04:40:00;16;15;
77699;PMS5003;66867;42.658;23.320;2023-06-14T04:41:00;16;16;
77699;PMS5003;66867;42.658;23.320;2023-06-14T04:42:00;18;18;
77699;PMS5003;66867;42.658;23.320;2023-06-14T04:43:00;12;12;
77699;PMS5003;66867;42.658;23.320;2023-06-14T04:44:01;12;12;
77699;PMS5003;66867;42.658;23.320;2023-06-14T04:45:00;14;13;
77699;PMS5003;66867;42.658;23.320;2023-06-14T04:46:00;12;12;
77699;PMS5003;66867;42.658;23.320;2023-06-14T04:47:00;13;13;
77699;PMS5003;66867;42.658;23.320;2023-06-14T04:48:00;26;24;
77699;PMS5003;66867;42.658;23.320;2023-06-14T04:49:00;23;23;
77699;PMS5003;66867;42.658;23.320;2023-06-14T04:50:00;19;18;
77699;PMS5003;66867;42.658;23.320;2023-06-14T04:51:00;19;18;
77699;PMS5003;66867;42.658;23.320;2023-06-14T04:52:00;19;18;
77699;PMS5003;66867;42.658;23.320;2023-06-14T04:53:00;15;15;
77699;PMS5003;66867;42.658;23.320;2023-06-14T04:54:00;15;15;
77699;PMS5003;66867;42.658;23.320;2023-06-14T04:57:00;12;12;
77699;PMS5003;66867;42.658;23.320;2023-06-14T04:58:00;18;17;
77699;PMS5003;66867;42.658;23.320;2023-06-14T05:02:00;16;16;
77699;PMS5003;66867;42.658;23.320;2023-06-14T05:03:00;16;16;
77699;PMS5003;66867;42.658;23.320;2023-06-14T05:04:00;18;18;
77699;PMS5003;66867;42.658;23.320;2023-06-14T05:05:00;18;18;
77699;PMS5003;66867;42.658;23.320;2023-06-14T05:06:00;17;17;
77699;PMS5003;66867;42.658;23.320;2023-06-14T05:07:00;17;15;
77699;PMS5003;66867;42.658;23.320;2023-06-14T05:08:00;15;14;
77699;PMS5003;66867;42.658;23.320;2023-06-14T05:09:00;16;16;
77699;PMS5003;66867;42.658;23.320;2023-06-14T05:10:00;16;16;
77699;PMS5003;66867;42.658;23.320;2023-06-14T05:13:00;17;16;
77699;PMS5003;66867;42.658;23.320;2023-06-14T05:14:00;15;15;
77699;PMS5003;66867;42.658;23.320;2023-06-14T05:15:00;20;20;
77699;PMS5003;66867;42.658;23.320;2023-06-14T05:16:00;24;24;
77699;PMS5003;66867;42.658;23.320;2023-06-14T05:17:00;20;20;
77699;PMS5003;66867;42.658;23.320;2023-06-14T05:18:00;18;17;
77699;PMS5003;66867;42.658;23.320;2023-06-14T05:19:00;17;16;
77699;PMS5003;66867;42.658;23.320;2023-06-14T05:20:00;18;18;
77699;PMS5003;66867;42.658;23.320;2023-06-14T05:21:00;19;19;
77699;PMS5003;66867;42.658;23.320;2023-06-14T05:22:00;18;18;
77699;PMS5003;66867;42.658;23.320;2023-06-14T05:23:00;16;16;
77699;PMS5003;66867;42.658;23.320;2023-06-14T05:24:01;16;16;
77699;PMS5003;66867;42.658;23.320;2023-06-14T05:25:00;16;16;
77699;PMS5003;66867;42.658;23.320;2023-06-14T05:26:00;16;15;
77699;PMS5003;66867;42.658;23.320;2023-06-14T05:27:00;18;17;
77699;PMS5003;66867;42.658;23.320;2023-06-14T05:28:00;20;20;
77699;PMS5003;66867;42.658;23.320;2023-06-14T05:29:00;18;17;
77699;PMS5003;66867;42.658;23.320;2023-06-14T05:30:00;18;18;
77699;PMS5003;66867;42.658;23.320;2023-06-14T05:31:00;18;18;
77699;PMS5003;66867;42.658;23.320;2023-06-14T05:32:00;17;17;
77699;PMS5003;66867;42.658;23.320;2023-06-14T05:33:00;19;19;
77699;PMS5003;66867;42.658;23.320;2023-06-14T05:34:00;17;17;
77699;PMS5003;66867;42.658;23.320;2023-06-14T05:35:00;16;16;
77699;PMS5003;66867;42.658;23.320;2023-06-14T05:36:00;17;17;
77699;PMS5003;66867;42.658;23.320;2023-06-14T05:37:00;22;20;
77699;PMS5003;66867;42.658;23.320;2023-06-14T05:38:00;22;20;
77699;PMS5003;66867;42.658;23.320;2023-06-14T05:39:00;20;20;
77699;PMS5003;66867;42.658;23.320;2023-06-14T05:40:00;20;20;
77699;PMS5003;66867;42.658;23.320;2023-06-14T05:41:00;21;19;
77699;PMS5003;66867;42.658;23.320;2023-06-14T05:42:00;21;19;
77699;PMS5003;66867;42.658;23.320;2023-06-14T05:43:00;19;19;
77699;PMS5003;66867;42.658;23.320;2023-06-14T05:51:00;18;18;
77699;PMS5003;66867;42.658;23.320;2023-06-14T05:52:00;18;18;
77699;PMS5003;66867;42.658;23.320;2023-06-14T05:53:00;20;20;
77699;PMS5003;66867;42.658;23.320;2023-06-14T05:54:00;20;19;
77699;PMS5003;66867;42.658;23.320;2023-06-14T05:55:00;19;17;
77699;PMS5003;66867;42.658;23.320;2023-06-14T05:56:00;23;22;
77699;PMS5003;66867;42.658;23.320;2023-06-14T05:57:00;22;22;
77699;PMS5003;66867;42.658;23.320;2023-06-14T05:58:00;18;18;
77699;PMS5003;66867;42.658;23.320;2023-06-14T05:59:00;18;18;
77699;PMS5003;66867;42.658;23.320;2023-06-14T06:00:00;18;18;
77699;PMS5003;66867;42.658;23.320;2023-06-14T06:01:00;18;18;
77699;PMS5003;66867;42.658;23.320;2023-06-14T06:02:00;18;17;
77699;PMS5003;66867;42.658;23.320;2023-06-14T06:03:00;17;17;
77699;PMS5003;66867;42.658;23.320;2023-06-14T06:04:00;20;19;
77699;PMS5003;66867;42.658;23.320;2023-06-14T06:05:00;20;19;
77699;PMS5003;66867;42.658;23.320;2023-06-14T06:06:00;20;19;
77699;PMS5003;66867;42.658;23.320;2023-06-14T06:07:00;18;17;
77699;PMS5003;66867;42.658;23.320;2023-06-14T06:08:00;29;27;
77699;PMS5003;66867;42.658;23.320;2023-06-14T06:09:00;27;26;
77699;PMS5003;66867;42.658;23.320;2023-06-14T06:10:00;25;25;
77699;PMS5003;66867;42.658;23.320;2023-06-14T06:11:00;25;25;
77699;PMS5003;66867;42.658;23.320;2023-06-14T06:12:00;48;39;
77699;PMS5003;66867;42.658;23.320;2023-06-14T06:13:00;29;27;
77699;PMS5003;66867;42.658;23.320;2023-06-14T06:14:00;19;19;
77699;PMS5003;66867;42.658;23.320;2023-06-14T06:15:00;22;20;
77699;PMS5003;66867;42.658;23.320;2023-06-14T06:16:01;22;21;
77699;PMS5003;66867;42.658;23.320;2023-06-14T06:17:00;23;23;
77699;PMS5003;66867;42.658;23.320;2023-06-14T06:18:00;22;21;
77699;PMS5003;66867;42.658;23.320;2023-06-14T06:19:00;19;19;
77699;PMS5003;66867;42.658;23.320;2023-06-14T06:20:00;19;19;
77699;PMS5003;66867;42.658;23.320;2023-06-14T06:21:00;23;23;
77699;PMS5003;66867;42.658;23.320;2023-06-14T06:22:00;19;19;
77699;PMS5003;66867;42.658;23.320;2023-06-14T06:23:00;21;21;
77699;PMS5003;66867;42.658;23.320;2023-06-14T06:24:00;23;22;
77699;PMS5003;66867;42.658;23.320;2023-06-14T06:25:00;23;22;
77699;PMS5003;66867;42.658;23.320;2023-06-14T06:26:00;21;20;
77699;PMS5003;66867;42.658;23.320;2023-06-14T06:27:00;20;20;
77699;PMS5003;66867;42.658;23.320;2023-06-14T06:28:00;23;23;
77699;PMS5003;66867;42.658;23.320;2023-06-14T06:29:00;23;23;
77699;PMS5003;66867;42.658;23.320;2023-06-14T06:30:00;22;21;
77699;PMS5003;66867;42.658;23.320;2023-06-14T06:31:00;23;23;
77699;PMS5003;66867;42.658;23.320;2023-06-14T06:32:01;31;28;
77699;PMS5003;66867;42.658;23.320;2023-06-14T06:33:01;26;25;
77699;PMS5003;66867;42.658;23.320;2023-06-14T06:34:00;22;22;
77699;PMS5003;66867;42.658;23.320;2023-06-14T06:35:00;23;22;
77699;PMS5003;66867;42.658;23.320;2023-06-14T06:36:00;20;18;
77699;PMS5003;66867;42.658;23.320;2023-06-14T06:37:00;29;29;
77699;PMS5003;66867;42.658;23.320;2023-06-14T06:38:00;31;30;
77699;PMS5003;66867;42.658;23.320;2023-06-14T06:39:00;23;22;
77699;PMS5003;66867;42.658;23.320;2023-06-14T06:40:00;27;25;
77699;PMS5003;66867;42.658;23.320;2023-06-14T06:41:00;32;30;
77699;PMS5003;66867;42.658;23.320;2023-06-14T06:42:00;31;30;
77699;PMS5003;66867;42.658;23.320;2023-06-14T06:43:01;29;28;
77699;PMS5003;66867;42.658;23.320;2023-06-14T06:44:00;28;26;
77699;PMS5003;66867;42.658;23.320;2023-06-14T06:45:00;22;22;
77699;PMS5003;66867;42.658;23.320;2023-06-14T06:46:00;28;28;
77699;PMS5003;66867;42.658;23.320;2023-06-14T06:47:00;29;29;
77699;PMS5003;66867;42.658;23.320;2023-06-14T06:48:00;30;29;
77699;PMS5003;66867;42.658;23.320;2023-06-14T06:49:00;28;27;
77699;PMS5003;66867;42.658;23.320;2023-06-14T06:50:00;36;33;